Overview Statistics Trail Chart Weather Telemetry Raw packets
 

This is the latest recevied weather packets stored in our database for station/object KD7CTY. If no packets are shown the sender has not sent any weather packets the latest 10 day(s).

<< 6 7 8 9 10 11 12 >>
Time Temp. Humidity Pressure Rain* Wind** Luminosity Snow
1788559651 21.67° C 56% 1012.7 hPa 0 mm - 563 W/m² -
1788559346 21.67° C 55% 1012.5 hPa 0 mm - 567 W/m² -
1788559046 21.67° C 56% 1012.6 hPa 0 mm - 571 W/m² -
1788558741 21.11° C 58% 1012.7 hPa 0 mm - 577 W/m² -
1788558442 21.67° C 57% 1012.5 hPa 0 mm - 590 W/m² -
1788558132 21.67° C 55% 1012.7 hPa 0 mm - 599 W/m² -
1788557830 21.11° C 57% 1012.7 hPa 0 mm - 601 W/m² -
1788557527 21.11° C 58% 1012.8 hPa 0 mm - 600 W/m² -
1788557221 21.11° C 57% 1012.5 hPa 0 mm - 605 W/m² -
1788556916 21.11° C 58% 1012.7 hPa 0 mm - 609 W/m² -
1788556627 21.11° C 57% 1012.7 hPa 0 mm - 621 W/m² -
1788556311 21.67° C 57% 1012.4 hPa 0 mm - 627 W/m² -
1788556005 21.67° C 57% 1012.7 hPa 0 mm - 632 W/m² -
1788555701 21.11° C 61% 1012.8 hPa 0 mm - 639 W/m² -
1788555396 20.56° C 59% 1012.7 hPa 0 mm - 661 W/m² -
1788555093 21.11° C 61% 1012.8 hPa 0 mm - 650 W/m² -
1788554789 20.56° C 58% 1012.6 hPa 0 mm - 663 W/m² -
1788554485 20.56° C 57% 1012.6 hPa 0 mm - 661 W/m² -
1788554180 21.67° C 57% 1012.8 hPa 0 mm - 524 W/m² -
1788553877 21.11° C 60% 1012.5 hPa 0 mm - 701 W/m² -
1788553572 21.11° C 59% 1012.7 hPa 0 mm - 705 W/m² -
1788553269 20.56° C 63% 1012.7 hPa 0 mm - 715 W/m² -
1788552969 20.56° C 60% 1012.6 hPa 0 mm - 728 W/m² -
1788552663 20.56° C 62% 1012.5 hPa 0 mm - 741 W/m² -
1788552362 20.56° C 64% 1012.5 hPa 0 mm - 742 W/m² -

* Rain latest hour (hover to see other rain measurements)
** Current wind speed in m/s (hover to see current wind gust speed)